Terminal Aerodrome Forecast
Issued by NWS Portland, ME

Home | Current Version | Previous Version | Text Only | Print | Product List | Glossary On
Versions: 1 2 3 4 5 6 7 8 9 10 11 12 13 14 15 16 17 18 19 20 21 22
000
FTUS41 KGYX 201900 AAA
TAFPWM
TAF AMD
KPWM 201915Z 2019/2118 18012KT P6SM SCT250
     FM210100 VRB03KT P6SM BKN250
     FM211200 21005KT P6SM BKN250
     FM211500 18010KT P6SM SCT250=

USA.gov is the U.S. government's official web portal to all federal, state and local government web resources and services.